KNEW/NEW METAR and TAF weather

Enter ICAO airport designator
Station Type Date Time Source
KNEW METAR 2022/01/29 12:53 UTC NOAA

KNEW 291253Z 01016KT 10SM CLR 03/M07 A3041 RMK AO2 SLP292 T00281072


Station Type Date Time Source
KNEW Decoded METAR 2022/01/29 12:53 UTC NOAA

NEW ORLEANS LAKEFRONT AIRPORT , LA, United States (KNEW) 30-03N 90-02W 3M
Jan 29, 2022 - 07:53 AM EST / 2022.01.29 1253 UTC
Wind: from the N (010 degrees) at 18 MPH (16 KT):0
Visibility: 10 mile(s):0
Sky conditions: clear
Temperature: 37.0 F (2.8 C)
Dew Point: 19.0 F (-7.2 C)
Relative Humidity: 47%
Pressure (altimeter): 30.41 in. Hg (1029 hPa)
ob: KNEW 291253Z 01016KT 10SM CLR 03/M07 A3041 RMK AO2 SLP292 T00281072
cycle: 13

Station Type Date Time Source
KNEW TAF 2022/01/29 12:27 UTC NOAA

TAF KNEW 291125Z 2912/3012 01016KT P6SM SKC
FM291400 01010KT P6SM SKC
FM291900 32006KT P6SM SKC
FM300200 22005KT P6SM SKC

Example: see airport list